sensor_id;sensor_type;location;lat;lon;timestamp;P1;durP1;ratioP1;P2;durP2;ratioP2
21175;SDS011;10746;50.178;8.186;2022-10-23T00:01:58;6.05;;;2.60;;
21175;SDS011;10746;50.178;8.186;2022-10-23T00:04:27;14.77;;;3.60;;
21175;SDS011;10746;50.178;8.186;2022-10-23T00:06:54;11.18;;;3.17;;
21175;SDS011;10746;50.178;8.186;2022-10-23T00:09:22;9.55;;;3.08;;
21175;SDS011;10746;50.178;8.186;2022-10-23T00:11:50;10.38;;;3.22;;
21175;SDS011;10746;50.178;8.186;2022-10-23T00:14:18;5.88;;;2.92;;
21175;SDS011;10746;50.178;8.186;2022-10-23T00:16:47;11.13;;;3.20;;
21175;SDS011;10746;50.178;8.186;2022-10-23T00:19:13;4.47;;;3.00;;
21175;SDS011;10746;50.178;8.186;2022-10-23T00:21:42;12.57;;;2.90;;
21175;SDS011;10746;50.178;8.186;2022-10-23T00:24:09;8.43;;;3.00;;
21175;SDS011;10746;50.178;8.186;2022-10-23T00:26:36;4.68;;;3.30;;
21175;SDS011;10746;50.178;8.186;2022-10-23T00:29:04;10.30;;;3.00;;
21175;SDS011;10746;50.178;8.186;2022-10-23T00:31:32;8.85;;;3.50;;
21175;SDS011;10746;50.178;8.186;2022-10-23T00:33:59;12.77;;;3.22;;
21175;SDS011;10746;50.178;8.186;2022-10-23T00:36:28;4.88;;;3.33;;
21175;SDS011;10746;50.178;8.186;2022-10-23T00:38:56;9.20;;;3.83;;
21175;SDS011;10746;50.178;8.186;2022-10-23T00:41:24;5.72;;;3.22;;
21175;SDS011;10746;50.178;8.186;2022-10-23T00:44:00;13.65;;;3.47;;
21175;SDS011;10746;50.178;8.186;2022-10-23T00:46:32;6.78;;;3.55;;
21175;SDS011;10746;50.178;8.186;2022-10-23T00:49:00;10.73;;;3.78;;
21175;SDS011;10746;50.178;8.186;2022-10-23T00:51:29;10.95;;;3.53;;
21175;SDS011;10746;50.178;8.186;2022-10-23T00:54:00;6.97;;;3.63;;
21175;SDS011;10746;50.178;8.186;2022-10-23T00:56:29;9.75;;;3.75;;
21175;SDS011;10746;50.178;8.186;2022-10-23T00:58:58;6.18;;;3.25;;
21175;SDS011;10746;50.178;8.186;2022-10-23T01:01:25;4.68;;;3.40;;
21175;SDS011;10746;50.178;8.186;2022-10-23T01:03:52;11.65;;;3.13;;
21175;SDS011;10746;50.178;8.186;2022-10-23T01:06:20;4.55;;;2.85;;
21175;SDS011;10746;50.178;8.186;2022-10-23T01:08:59;6.75;;;3.55;;
21175;SDS011;10746;50.178;8.186;2022-10-23T01:11:36;5.68;;;3.00;;
21175;SDS011;10746;50.178;8.186;2022-10-23T01:14:11;11.50;;;3.40;;
21175;SDS011;10746;50.178;8.186;2022-10-23T01:16:49;12.27;;;3.63;;
21175;SDS011;10746;50.178;8.186;2022-10-23T01:19:26;5.75;;;3.00;;
21175;SDS011;10746;50.178;8.186;2022-10-23T01:22:09;12.30;;;3.70;;
21175;SDS011;10746;50.178;8.186;2022-10-23T01:24:49;8.38;;;3.13;;
21175;SDS011;10746;50.178;8.186;2022-10-23T01:27:24;7.75;;;3.05;;
21175;SDS011;10746;50.178;8.186;2022-10-23T01:29:58;13.98;;;3.25;;
21175;SDS011;10746;50.178;8.186;2022-10-23T01:32:32;13.63;;;3.83;;
21175;SDS011;10746;50.178;8.186;2022-10-23T01:35:06;8.77;;;3.60;;
21175;SDS011;10746;50.178;8.186;2022-10-23T01:37:39;12.40;;;3.83;;
21175;SDS011;10746;50.178;8.186;2022-10-23T01:40:09;8.00;;;4.28;;
21175;SDS011;10746;50.178;8.186;2022-10-23T01:42:45;13.23;;;4.95;;
21175;SDS011;10746;50.178;8.186;2022-10-23T01:45:19;7.35;;;4.38;;
21175;SDS011;10746;50.178;8.186;2022-10-23T01:47:50;8.25;;;3.97;;
21175;SDS011;10746;50.178;8.186;2022-10-23T01:50:20;7.65;;;4.00;;
21175;SDS011;10746;50.178;8.186;2022-10-23T01:52:50;9.82;;;4.30;;
21175;SDS011;10746;50.178;8.186;2022-10-23T01:55:17;10.80;;;4.38;;
21175;SDS011;10746;50.178;8.186;2022-10-23T01:57:45;8.18;;;4.40;;
21175;SDS011;10746;50.178;8.186;2022-10-23T02:00:15;8.70;;;4.00;;
21175;SDS011;10746;50.178;8.186;2022-10-23T02:02:43;11.25;;;3.90;;
21175;SDS011;10746;50.178;8.186;2022-10-23T02:05:14;12.30;;;4.28;;
21175;SDS011;10746;50.178;8.186;2022-10-23T02:07:43;12.38;;;4.18;;
21175;SDS011;10746;50.178;8.186;2022-10-23T02:10:10;14.40;;;4.20;;
21175;SDS011;10746;50.178;8.186;2022-10-23T02:12:40;7.22;;;3.88;;
21175;SDS011;10746;50.178;8.186;2022-10-23T02:15:18;13.32;;;4.07;;
21175;SDS011;10746;50.178;8.186;2022-10-23T02:17:48;8.75;;;4.20;;
21175;SDS011;10746;50.178;8.186;2022-10-23T02:20:22;9.75;;;4.43;;
21175;SDS011;10746;50.178;8.186;2022-10-23T02:22:56;14.85;;;4.25;;
21175;SDS011;10746;50.178;8.186;2022-10-23T02:25:28;9.68;;;3.78;;
21175;SDS011;10746;50.178;8.186;2022-10-23T02:28:00;7.93;;;4.28;;
21175;SDS011;10746;50.178;8.186;2022-10-23T02:30:31;6.70;;;3.90;;
21175;SDS011;10746;50.178;8.186;2022-10-23T02:33:00;9.18;;;4.18;;
21175;SDS011;10746;50.178;8.186;2022-10-23T02:35:29;8.60;;;4.13;;
21175;SDS011;10746;50.178;8.186;2022-10-23T02:37:56;7.32;;;4.20;;
21175;SDS011;10746;50.178;8.186;2022-10-23T02:40:25;12.68;;;4.22;;
21175;SDS011;10746;50.178;8.186;2022-10-23T02:43:00;9.77;;;3.83;;
21175;SDS011;10746;50.178;8.186;2022-10-23T02:45:31;10.02;;;4.65;;
21175;SDS011;10746;50.178;8.186;2022-10-23T02:48:06;10.95;;;4.43;;
21175;SDS011;10746;50.178;8.186;2022-10-23T02:50:38;12.80;;;5.15;;
21175;SDS011;10746;50.178;8.186;2022-10-23T02:53:12;9.77;;;4.35;;
21175;SDS011;10746;50.178;8.186;2022-10-23T02:55:45;10.32;;;4.72;;
21175;SDS011;10746;50.178;8.186;2022-10-23T02:58:23;10.38;;;5.18;;
21175;SDS011;10746;50.178;8.186;2022-10-23T03:00:53;11.05;;;4.85;;
21175;SDS011;10746;50.178;8.186;2022-10-23T03:03:24;10.63;;;4.80;;
21175;SDS011;10746;50.178;8.186;2022-10-23T03:05:55;13.27;;;5.15;;
21175;SDS011;10746;50.178;8.186;2022-10-23T03:08:22;6.97;;;3.97;;
21175;SDS011;10746;50.178;8.186;2022-10-23T03:10:50;13.50;;;4.90;;
21175;SDS011;10746;50.178;8.186;2022-10-23T03:13:16;19.65;;;4.78;;
21175;SDS011;10746;50.178;8.186;2022-10-23T03:15:45;13.88;;;4.82;;
21175;SDS011;10746;50.178;8.186;2022-10-23T03:18:11;10.07;;;4.85;;
21175;SDS011;10746;50.178;8.186;2022-10-23T03:20:38;12.55;;;4.53;;
21175;SDS011;10746;50.178;8.186;2022-10-23T03:23:05;11.35;;;4.68;;
21175;SDS011;10746;50.178;8.186;2022-10-23T03:25:32;13.20;;;5.32;;
21175;SDS011;10746;50.178;8.186;2022-10-23T03:27:58;12.05;;;4.75;;
21175;SDS011;10746;50.178;8.186;2022-10-23T03:30:25;9.57;;;4.43;;
21175;SDS011;10746;50.178;8.186;2022-10-23T03:32:53;12.38;;;5.20;;
21175;SDS011;10746;50.178;8.186;2022-10-23T03:35:20;14.35;;;5.80;;
21175;SDS011;10746;50.178;8.186;2022-10-23T03:37:47;14.90;;;5.47;;
21175;SDS011;10746;50.178;8.186;2022-10-23T03:40:14;12.18;;;5.50;;
21175;SDS011;10746;50.178;8.186;2022-10-23T03:42:41;12.18;;;5.28;;
21175;SDS011;10746;50.178;8.186;2022-10-23T03:45:08;10.90;;;5.72;;
21175;SDS011;10746;50.178;8.186;2022-10-23T03:47:35;11.00;;;5.50;;
21175;SDS011;10746;50.178;8.186;2022-10-23T03:50:06;11.40;;;5.40;;
21175;SDS011;10746;50.178;8.186;2022-10-23T03:52:34;11.73;;;4.57;;
21175;SDS011;10746;50.178;8.186;2022-10-23T03:55:01;11.70;;;4.63;;
21175;SDS011;10746;50.178;8.186;2022-10-23T03:57:28;8.60;;;4.55;;
21175;SDS011;10746;50.178;8.186;2022-10-23T03:59:55;13.30;;;4.68;;
21175;SDS011;10746;50.178;8.186;2022-10-23T04:02:22;10.30;;;4.72;;
21175;SDS011;10746;50.178;8.186;2022-10-23T04:04:48;14.75;;;4.47;;
21175;SDS011;10746;50.178;8.186;2022-10-23T04:07:17;7.40;;;4.10;;
21175;SDS011;10746;50.178;8.186;2022-10-23T04:09:44;11.73;;;4.47;;
21175;SDS011;10746;50.178;8.186;2022-10-23T04:12:10;9.07;;;4.00;;
21175;SDS011;10746;50.178;8.186;2022-10-23T04:14:37;9.25;;;4.03;;
21175;SDS011;10746;50.178;8.186;2022-10-23T04:17:04;17.90;;;4.22;;
21175;SDS011;10746;50.178;8.186;2022-10-23T04:19:31;12.45;;;4.28;;
21175;SDS011;10746;50.178;8.186;2022-10-23T04:21:58;7.63;;;4.55;;
21175;SDS011;10746;50.178;8.186;2022-10-23T04:24:26;7.85;;;4.40;;
21175;SDS011;10746;50.178;8.186;2022-10-23T04:26:53;12.73;;;4.93;;
21175;SDS011;10746;50.178;8.186;2022-10-23T04:29:20;13.45;;;4.75;;
21175;SDS011;10746;50.178;8.186;2022-10-23T04:31:48;7.30;;;4.10;;
21175;SDS011;10746;50.178;8.186;2022-10-23T04:34:16;9.27;;;3.97;;
21175;SDS011;10746;50.178;8.186;2022-10-23T04:36:43;14.18;;;4.00;;
21175;SDS011;10746;50.178;8.186;2022-10-23T04:39:10;11.30;;;4.20;;
21175;SDS011;10746;50.178;8.186;2022-10-23T04:41:38;16.10;;;4.25;;
21175;SDS011;10746;50.178;8.186;2022-10-23T04:44:05;4.57;;;3.58;;
21175;SDS011;10746;50.178;8.186;2022-10-23T04:46:32;6.53;;;3.80;;
21175;SDS011;10746;50.178;8.186;2022-10-23T04:48:59;8.50;;;4.03;;
21175;SDS011;10746;50.178;8.186;2022-10-23T04:51:26;10.57;;;4.35;;
21175;SDS011;10746;50.178;8.186;2022-10-23T04:53:53;10.65;;;3.92;;
21175;SDS011;10746;50.178;8.186;2022-10-23T04:56:20;11.15;;;3.40;;
21175;SDS011;10746;50.178;8.186;2022-10-23T04:58:48;5.47;;;3.50;;
21175;SDS011;10746;50.178;8.186;2022-10-23T05:01:16;15.15;;;3.30;;
21175;SDS011;10746;50.178;8.186;2022-10-23T05:03:43;5.25;;;3.50;;
21175;SDS011;10746;50.178;8.186;2022-10-23T05:06:10;9.82;;;3.78;;
21175;SDS011;10746;50.178;8.186;2022-10-23T05:08:37;7.72;;;3.35;;
21175;SDS011;10746;50.178;8.186;2022-10-23T05:11:03;9.80;;;3.30;;
21175;SDS011;10746;50.178;8.186;2022-10-23T05:13:30;9.27;;;3.90;;
21175;SDS011;10746;50.178;8.186;2022-10-23T05:15:59;4.78;;;3.50;;
21175;SDS011;10746;50.178;8.186;2022-10-23T05:18:26;8.25;;;3.58;;
21175;SDS011;10746;50.178;8.186;2022-10-23T05:20:57;13.48;;;3.35;;
21175;SDS011;10746;50.178;8.186;2022-10-23T05:23:26;15.45;;;3.50;;
21175;SDS011;10746;50.178;8.186;2022-10-23T05:25:56;4.82;;;3.33;;
21175;SDS011;10746;50.178;8.186;2022-10-23T05:28:23;10.98;;;3.55;;
21175;SDS011;10746;50.178;8.186;2022-10-23T05:30:49;11.30;;;4.07;;
21175;SDS011;10746;50.178;8.186;2022-10-23T05:33:18;10.65;;;3.78;;
21175;SDS011;10746;50.178;8.186;2022-10-23T05:35:44;10.23;;;4.15;;
21175;SDS011;10746;50.178;8.186;2022-10-23T05:38:12;9.20;;;3.60;;
21175;SDS011;10746;50.178;8.186;2022-10-23T05:40:39;9.70;;;4.32;;
21175;SDS011;10746;50.178;8.186;2022-10-23T05:43:06;8.50;;;4.25;;
21175;SDS011;10746;50.178;8.186;2022-10-23T05:45:33;18.25;;;4.22;;
21175;SDS011;10746;50.178;8.186;2022-10-23T05:48:00;6.07;;;4.47;;
21175;SDS011;10746;50.178;8.186;2022-10-23T05:50:28;9.63;;;3.80;;
21175;SDS011;10746;50.178;8.186;2022-10-23T05:52:55;8.10;;;3.47;;
21175;SDS011;10746;50.178;8.186;2022-10-23T05:55:21;14.40;;;4.20;;
21175;SDS011;10746;50.178;8.186;2022-10-23T05:57:50;12.70;;;3.67;;
21175;SDS011;10746;50.178;8.186;2022-10-23T06:00:17;7.35;;;3.60;;
21175;SDS011;10746;50.178;8.186;2022-10-23T06:02:44;6.72;;;3.53;;
21175;SDS011;10746;50.178;8.186;2022-10-23T06:05:11;6.55;;;3.88;;
21175;SDS011;10746;50.178;8.186;2022-10-23T06:07:39;10.27;;;3.50;;
21175;SDS011;10746;50.178;8.186;2022-10-23T06:10:06;7.10;;;3.25;;
21175;SDS011;10746;50.178;8.186;2022-10-23T06:12:33;5.97;;;3.47;;
21175;SDS011;10746;50.178;8.186;2022-10-23T06:15:00;9.45;;;3.25;;
21175;SDS011;10746;50.178;8.186;2022-10-23T06:17:27;6.60;;;2.90;;
21175;SDS011;10746;50.178;8.186;2022-10-23T06:19:54;11.07;;;3.28;;
21175;SDS011;10746;50.178;8.186;2022-10-23T06:22:25;3.10;;;2.80;;
21175;SDS011;10746;50.178;8.186;2022-10-23T06:24:53;7.00;;;3.08;;
21175;SDS011;10746;50.178;8.186;2022-10-23T06:27:20;7.13;;;2.90;;
21175;SDS011;10746;50.178;8.186;2022-10-23T06:29:47;9.38;;;3.10;;
21175;SDS011;10746;50.178;8.186;2022-10-23T06:32:14;5.50;;;3.20;;
21175;SDS011;10746;50.178;8.186;2022-10-23T06:34:42;9.57;;;2.90;;
21175;SDS011;10746;50.178;8.186;2022-10-23T06:37:09;8.23;;;3.25;;
21175;SDS011;10746;50.178;8.186;2022-10-23T06:39:36;12.63;;;3.25;;
21175;SDS011;10746;50.178;8.186;2022-10-23T06:42:06;7.35;;;2.72;;
21175;SDS011;10746;50.178;8.186;2022-10-23T06:44:32;5.25;;;2.90;;
21175;SDS011;10746;50.178;8.186;2022-10-23T06:46:59;4.88;;;2.70;;
21175;SDS011;10746;50.178;8.186;2022-10-23T06:49:26;4.28;;;2.45;;
21175;SDS011;10746;50.178;8.186;2022-10-23T06:51:53;4.82;;;2.15;;
21175;SDS011;10746;50.178;8.186;2022-10-23T06:54:20;11.30;;;2.65;;
21175;SDS011;10746;50.178;8.186;2022-10-23T06:56:47;4.32;;;2.38;;
21175;SDS011;10746;50.178;8.186;2022-10-23T06:59:15;3.88;;;2.70;;
21175;SDS011;10746;50.178;8.186;2022-10-23T07:01:43;4.32;;;2.60;;
21175;SDS011;10746;50.178;8.186;2022-10-23T07:04:10;4.05;;;2.60;;
21175;SDS011;10746;50.178;8.186;2022-10-23T07:06:38;6.93;;;2.47;;
21175;SDS011;10746;50.178;8.186;2022-10-23T07:09:05;10.43;;;2.72;;
21175;SDS011;10746;50.178;8.186;2022-10-23T07:11:32;3.22;;;2.33;;
21175;SDS011;10746;50.178;8.186;2022-10-23T07:13:59;6.35;;;2.10;;
21175;SDS011;10746;50.178;8.186;2022-10-23T07:16:27;3.50;;;2.65;;
21175;SDS011;10746;50.178;8.186;2022-10-23T07:18:55;8.85;;;2.50;;
21175;SDS011;10746;50.178;8.186;2022-10-23T07:21:24;6.60;;;2.17;;
21175;SDS011;10746;50.178;8.186;2022-10-23T07:23:51;3.33;;;2.28;;
21175;SDS011;10746;50.178;8.186;2022-10-23T07:26:18;6.13;;;2.55;;
21175;SDS011;10746;50.178;8.186;2022-10-23T07:28:46;11.93;;;2.90;;
21175;SDS011;10746;50.178;8.186;2022-10-23T07:31:15;5.38;;;2.40;;
21175;SDS011;10746;50.178;8.186;2022-10-23T07:33:44;11.07;;;2.67;;
21175;SDS011;10746;50.178;8.186;2022-10-23T07:36:11;10.07;;;2.33;;
21175;SDS011;10746;50.178;8.186;2022-10-23T07:38:37;2.38;;;2.15;;
21175;SDS011;10746;50.178;8.186;2022-10-23T07:41:04;3.58;;;1.98;;
21175;SDS011;10746;50.178;8.186;2022-10-23T07:43:31;3.20;;;2.00;;
21175;SDS011;10746;50.178;8.186;2022-10-23T07:45:59;5.15;;;2.13;;
21175;SDS011;10746;50.178;8.186;2022-10-23T07:48:26;3.42;;;2.33;;
21175;SDS011;10746;50.178;8.186;2022-10-23T07:50:57;4.18;;;1.95;;
21175;SDS011;10746;50.178;8.186;2022-10-23T07:53:25;7.43;;;2.10;;
21175;SDS011;10746;50.178;8.186;2022-10-23T07:55:53;2.75;;;1.88;;
21175;SDS011;10746;50.178;8.186;2022-10-23T07:58:21;2.00;;;1.80;;
21175;SDS011;10746;50.178;8.186;2022-10-23T08:00:49;7.85;;;2.10;;
21175;SDS011;10746;50.178;8.186;2022-10-23T08:03:19;7.63;;;2.10;;
21175;SDS011;10746;50.178;8.186;2022-10-23T08:05:46;2.33;;;1.85;;
21175;SDS011;10746;50.178;8.186;2022-10-23T08:08:15;8.35;;;2.20;;
21175;SDS011;10746;50.178;8.186;2022-10-23T08:10:41;8.27;;;2.08;;
21175;SDS011;10746;50.178;8.186;2022-10-23T08:13:09;2.00;;;1.73;;
21175;SDS011;10746;50.178;8.186;2022-10-23T08:15:38;7.85;;;2.13;;
21175;SDS011;10746;50.178;8.186;2022-10-23T08:18:04;2.28;;;1.77;;
21175;SDS011;10746;50.178;8.186;2022-10-23T08:20:31;9.48;;;2.25;;
21175;SDS011;10746;50.178;8.186;2022-10-23T08:23:02;3.90;;;1.88;;
21175;SDS011;10746;50.178;8.186;2022-10-23T08:25:30;8.73;;;2.42;;
21175;SDS011;10746;50.178;8.186;2022-10-23T08:27:57;5.30;;;2.08;;
21175;SDS011;10746;50.178;8.186;2022-10-23T08:30:25;6.50;;;2.05;;
21175;SDS011;10746;50.178;8.186;2022-10-23T08:32:52;4.85;;;2.20;;
21175;SDS011;10746;50.178;8.186;2022-10-23T08:35:19;6.45;;;2.42;;
21175;SDS011;10746;50.178;8.186;2022-10-23T08:37:46;4.05;;;2.53;;
21175;SDS011;10746;50.178;8.186;2022-10-23T08:40:13;7.50;;;1.90;;
21175;SDS011;10746;50.178;8.186;2022-10-23T08:42:44;4.78;;;2.08;;
21175;SDS011;10746;50.178;8.186;2022-10-23T08:45:20;8.25;;;2.03;;
21175;SDS011;10746;50.178;8.186;2022-10-23T08:47:57;5.55;;;1.80;;
21175;SDS011;10746;50.178;8.186;2022-10-23T08:50:31;2.83;;;2.03;;
21175;SDS011;10746;50.178;8.186;2022-10-23T08:53:04;4.38;;;1.80;;
21175;SDS011;10746;50.178;8.186;2022-10-23T08:55:40;3.55;;;1.77;;
21175;SDS011;10746;50.178;8.186;2022-10-23T08:58:11;6.63;;;1.67;;
21175;SDS011;10746;50.178;8.186;2022-10-23T09:00:42;3.95;;;2.00;;
21175;SDS011;10746;50.178;8.186;2022-10-23T09:03:11;9.52;;;2.20;;
21175;SDS011;10746;50.178;8.186;2022-10-23T09:05:43;8.20;;;2.40;;
21175;SDS011;10746;50.178;8.186;2022-10-23T09:08:23;3.13;;;1.92;;
21175;SDS011;10746;50.178;8.186;2022-10-23T09:11:00;4.07;;;1.90;;
21175;SDS011;10746;50.178;8.186;2022-10-23T09:13:35;2.80;;;1.73;;
21175;SDS011;10746;50.178;8.186;2022-10-23T09:16:15;5.10;;;2.20;;
21175;SDS011;10746;50.178;8.186;2022-10-23T09:18:50;3.35;;;1.80;;
21175;SDS011;10746;50.178;8.186;2022-10-23T09:21:17;7.88;;;1.95;;
21175;SDS011;10746;50.178;8.186;2022-10-23T09:23:44;3.08;;;1.83;;
21175;SDS011;10746;50.178;8.186;2022-10-23T09:26:13;2.08;;;1.67;;
21175;SDS011;10746;50.178;8.186;2022-10-23T09:28:44;2.30;;;1.77;;
21175;SDS011;10746;50.178;8.186;2022-10-23T09:31:12;4.80;;;2.08;;
21175;SDS011;10746;50.178;8.186;2022-10-23T09:33:39;4.78;;;1.90;;
21175;SDS011;10746;50.178;8.186;2022-10-23T09:36:07;7.60;;;1.73;;
21175;SDS011;10746;50.178;8.186;2022-10-23T09:38:48;2.65;;;1.77;;
21175;SDS011;10746;50.178;8.186;2022-10-23T09:41:18;6.63;;;1.67;;
21175;SDS011;10746;50.178;8.186;2022-10-23T09:43:57;6.30;;;2.22;;
21175;SDS011;10746;50.178;8.186;2022-10-23T09:46:35;4.45;;;2.00;;
21175;SDS011;10746;50.178;8.186;2022-10-23T09:49:02;2.47;;;1.90;;
21175;SDS011;10746;50.178;8.186;2022-10-23T09:51:30;3.10;;;1.70;;
21175;SDS011;10746;50.178;8.186;2022-10-23T09:53:57;3.65;;;1.70;;
21175;SDS011;10746;50.178;8.186;2022-10-23T09:56:26;2.10;;;1.85;;
21175;SDS011;10746;50.178;8.186;2022-10-23T09:58:57;2.67;;;1.60;;
21175;SDS011;10746;50.178;8.186;2022-10-23T10:01:27;4.88;;;1.92;;
21175;SDS011;10746;50.178;8.186;2022-10-23T10:03:55;2.92;;;1.88;;
21175;SDS011;10746;50.178;8.186;2022-10-23T10:06:22;6.95;;;1.98;;
21175;SDS011;10746;50.178;8.186;2022-10-23T10:08:52;2.25;;;1.90;;
21175;SDS011;10746;50.178;8.186;2022-10-23T10:11:22;5.90;;;1.80;;
21175;SDS011;10746;50.178;8.186;2022-10-23T10:13:59;2.30;;;1.75;;
21175;SDS011;10746;50.178;8.186;2022-10-23T10:16:37;1.70;;;1.42;;
21175;SDS011;10746;50.178;8.186;2022-10-23T10:19:12;5.88;;;1.85;;
21175;SDS011;10746;50.178;8.186;2022-10-23T10:21:52;1.80;;;1.55;;
21175;SDS011;10746;50.178;8.186;2022-10-23T10:24:28;2.13;;;1.50;;
21175;SDS011;10746;50.178;8.186;2022-10-23T10:27:01;4.35;;;1.42;;
21175;SDS011;10746;50.178;8.186;2022-10-23T10:29:47;3.13;;;1.52;;
21175;SDS011;10746;50.178;8.186;2022-10-23T10:32:26;3.95;;;1.40;;
21175;SDS011;10746;50.178;8.186;2022-10-23T10:35:08;5.18;;;1.65;;
21175;SDS011;10746;50.178;8.186;2022-10-23T10:37:57;7.85;;;1.70;;
21175;SDS011;10746;50.178;8.186;2022-10-23T10:40:35;1.67;;;1.42;;
21175;SDS011;10746;50.178;8.186;2022-10-23T10:43:12;2.80;;;1.90;;
21175;SDS011;10746;50.178;8.186;2022-10-23T10:45:50;5.03;;;1.67;;
21175;SDS011;10746;50.178;8.186;2022-10-23T10:48:26;1.60;;;1.48;;
21175;SDS011;10746;50.178;8.186;2022-10-23T10:51:04;3.00;;;1.70;;
21175;SDS011;10746;50.178;8.186;2022-10-23T10:53:38;2.33;;;1.75;;
21175;SDS011;10746;50.178;8.186;2022-10-23T10:56:13;1.83;;;1.70;;
21175;SDS011;10746;50.178;8.186;2022-10-23T10:58:44;3.83;;;1.95;;
21175;SDS011;10746;50.178;8.186;2022-10-23T11:01:16;7.00;;;1.75;;
21175;SDS011;10746;50.178;8.186;2022-10-23T11:03:52;5.45;;;1.70;;
21175;SDS011;10746;50.178;8.186;2022-10-23T11:06:23;2.55;;;1.75;;
21175;SDS011;10746;50.178;8.186;2022-10-23T11:08:54;3.40;;;1.77;;
21175;SDS011;10746;50.178;8.186;2022-10-23T11:11:23;8.88;;;1.85;;
21175;SDS011;10746;50.178;8.186;2022-10-23T11:13:52;3.58;;;1.70;;
21175;SDS011;10746;50.178;8.186;2022-10-23T11:16:23;1.90;;;1.80;;
21175;SDS011;10746;50.178;8.186;2022-10-23T11:18:54;1.83;;;1.73;;
21175;SDS011;10746;50.178;8.186;2022-10-23T11:21:29;7.05;;;2.05;;
21175;SDS011;10746;50.178;8.186;2022-10-23T11:24:10;3.13;;;1.80;;
21175;SDS011;10746;50.178;8.186;2022-10-23T11:27:07;3.47;;;2.20;;
21175;SDS011;10746;50.178;8.186;2022-10-23T11:30:10;5.28;;;2.05;;
21175;SDS011;10746;50.178;8.186;2022-10-23T11:35:44;4.47;;;1.95;;
21175;SDS011;10746;50.178;8.186;2022-10-23T11:38:30;3.47;;;2.30;;
21175;SDS011;10746;50.178;8.186;2022-10-23T11:40:59;2.67;;;1.90;;
21175;SDS011;10746;50.178;8.186;2022-10-23T11:43:29;6.30;;;1.92;;
21175;SDS011;10746;50.178;8.186;2022-10-23T11:45:57;2.67;;;1.90;;
21175;SDS011;10746;50.178;8.186;2022-10-23T11:48:38;6.32;;;1.90;;
21175;SDS011;10746;50.178;8.186;2022-10-23T11:53:51;4.25;;;1.88;;
21175;SDS011;10746;50.178;8.186;2022-10-23T11:56:26;2.65;;;1.95;;
21175;SDS011;10746;50.178;8.186;2022-10-23T11:58:55;2.25;;;1.85;;
21175;SDS011;10746;50.178;8.186;2022-10-23T12:01:32;3.63;;;1.80;;
21175;SDS011;10746;50.178;8.186;2022-10-23T12:04:05;9.70;;;1.52;;
21175;SDS011;10746;50.178;8.186;2022-10-23T12:06:45;3.08;;;1.92;;
21175;SDS011;10746;50.178;8.186;2022-10-23T12:09:21;3.70;;;1.95;;
21175;SDS011;10746;50.178;8.186;2022-10-23T12:12:00;3.00;;;1.70;;
21175;SDS011;10746;50.178;8.186;2022-10-23T12:14:31;7.85;;;2.10;;
21175;SDS011;10746;50.178;8.186;2022-10-23T12:17:00;2.10;;;1.90;;
21175;SDS011;10746;50.178;8.186;2022-10-23T12:19:29;7.75;;;1.77;;
21175;SDS011;10746;50.178;8.186;2022-10-23T12:22:12;3.03;;;1.70;;
21175;SDS011;10746;50.178;8.186;2022-10-23T12:27:29;3.92;;;1.65;;
21175;SDS011;10746;50.178;8.186;2022-10-23T12:30:13;2.58;;;1.58;;
21175;SDS011;10746;50.178;8.186;2022-10-23T12:32:51;5.03;;;1.75;;
21175;SDS011;10746;50.178;8.186;2022-10-23T12:35:42;5.60;;;1.50;;
21175;SDS011;10746;50.178;8.186;2022-10-23T12:38:20;2.92;;;1.42;;
21175;SDS011;10746;50.178;8.186;2022-10-23T12:40:50;7.25;;;1.45;;
21175;SDS011;10746;50.178;8.186;2022-10-23T12:43:25;2.67;;;1.60;;
21175;SDS011;10746;50.178;8.186;2022-10-23T12:45:53;2.55;;;1.50;;
21175;SDS011;10746;50.178;8.186;2022-10-23T12:48:22;4.47;;;1.60;;
21175;SDS011;10746;50.178;8.186;2022-10-23T12:50:52;2.15;;;1.50;;
21175;SDS011;10746;50.178;8.186;2022-10-23T12:53:20;4.13;;;1.50;;
21175;SDS011;10746;50.178;8.186;2022-10-23T12:55:48;4.97;;;1.55;;
21175;SDS011;10746;50.178;8.186;2022-10-23T12:58:21;5.18;;;1.70;;
21175;SDS011;10746;50.178;8.186;2022-10-23T13:00:50;2.17;;;1.52;;
21175;SDS011;10746;50.178;8.186;2022-10-23T13:03:18;2.97;;;1.70;;
21175;SDS011;10746;50.178;8.186;2022-10-23T13:05:47;7.10;;;1.50;;
21175;SDS011;10746;50.178;8.186;2022-10-23T13:08:17;5.53;;;1.52;;
21175;SDS011;10746;50.178;8.186;2022-10-23T13:10:45;6.18;;;1.52;;
21175;SDS011;10746;50.178;8.186;2022-10-23T13:13:13;2.35;;;1.50;;
21175;SDS011;10746;50.178;8.186;2022-10-23T13:15:46;5.72;;;1.90;;
21175;SDS011;10746;50.178;8.186;2022-10-23T13:18:13;3.33;;;1.60;;
21175;SDS011;10746;50.178;8.186;2022-10-23T13:20:55;3.83;;;1.75;;
21175;SDS011;10746;50.178;8.186;2022-10-23T13:23:27;3.63;;;2.00;;
21175;SDS011;10746;50.178;8.186;2022-10-23T13:25:56;4.05;;;2.00;;
21175;SDS011;10746;50.178;8.186;2022-10-23T13:28:25;2.10;;;1.80;;
21175;SDS011;10746;50.178;8.186;2022-10-23T13:30:58;3.40;;;1.80;;
21175;SDS011;10746;50.178;8.186;2022-10-23T13:33:32;5.78;;;1.90;;
21175;SDS011;10746;50.178;8.186;2022-10-23T13:36:03;3.15;;;1.95;;
21175;SDS011;10746;50.178;8.186;2022-10-23T13:38:58;3.13;;;1.80;;
21175;SDS011;10746;50.178;8.186;2022-10-23T13:41:32;1.50;;;1.40;;
21175;SDS011;10746;50.178;8.186;2022-10-23T13:44:17;4.30;;;1.77;;
21175;SDS011;10746;50.178;8.186;2022-10-23T13:46:45;2.05;;;1.60;;
21175;SDS011;10746;50.178;8.186;2022-10-23T13:49:13;7.88;;;2.03;;
21175;SDS011;10746;50.178;8.186;2022-10-23T13:51:42;2.50;;;1.80;;
21175;SDS011;10746;50.178;8.186;2022-10-23T13:54:16;2.42;;;1.90;;
21175;SDS011;10746;50.178;8.186;2022-10-23T13:56:48;5.93;;;2.20;;
21175;SDS011;10746;50.178;8.186;2022-10-23T13:59:19;5.10;;;1.85;;
21175;SDS011;10746;50.178;8.186;2022-10-23T14:01:47;5.57;;;2.03;;
21175;SDS011;10746;50.178;8.186;2022-10-23T14:04:26;2.15;;;1.95;;
21175;SDS011;10746;50.178;8.186;2022-10-23T14:06:54;7.50;;;2.20;;
21175;SDS011;10746;50.178;8.186;2022-10-23T14:09:24;2.58;;;1.70;;
21175;SDS011;10746;50.178;8.186;2022-10-23T14:11:53;3.33;;;1.80;;
21175;SDS011;10746;50.178;8.186;2022-10-23T14:14:20;5.05;;;2.30;;
21175;SDS011;10746;50.178;8.186;2022-10-23T14:16:49;2.15;;;1.95;;
21175;SDS011;10746;50.178;8.186;2022-10-23T14:19:19;5.10;;;1.92;;
21175;SDS011;10746;50.178;8.186;2022-10-23T14:21:52;8.15;;;2.03;;
21175;SDS011;10746;50.178;8.186;2022-10-23T14:24:20;2.75;;;1.80;;
21175;SDS011;10746;50.178;8.186;2022-10-23T14:26:49;3.42;;;1.90;;
21175;SDS011;10746;50.178;8.186;2022-10-23T14:29:29;10.50;;;2.42;;
21175;SDS011;10746;50.178;8.186;2022-10-23T14:31:57;4.82;;;2.30;;
21175;SDS011;10746;50.178;8.186;2022-10-23T14:34:24;8.38;;;2.10;;
21175;SDS011;10746;50.178;8.186;2022-10-23T14:36:52;3.55;;;2.05;;
21175;SDS011;10746;50.178;8.186;2022-10-23T14:39:20;9.00;;;2.33;;
21175;SDS011;10746;50.178;8.186;2022-10-23T14:41:50;2.53;;;1.95;;
21175;SDS011;10746;50.178;8.186;2022-10-23T14:44:17;9.48;;;2.22;;
21175;SDS011;10746;50.178;8.186;2022-10-23T14:46:50;11.90;;;2.45;;
21175;SDS011;10746;50.178;8.186;2022-10-23T14:49:17;2.47;;;2.03;;
21175;SDS011;10746;50.178;8.186;2022-10-23T14:51:46;3.60;;;2.00;;
21175;SDS011;10746;50.178;8.186;2022-10-23T14:54:16;2.42;;;2.20;;
21175;SDS011;10746;50.178;8.186;2022-10-23T14:56:43;5.80;;;2.45;;
21175;SDS011;10746;50.178;8.186;2022-10-23T14:59:16;4.13;;;2.40;;
21175;SDS011;10746;50.178;8.186;2022-10-23T15:01:43;5.85;;;2.20;;
21175;SDS011;10746;50.178;8.186;2022-10-23T15:04:13;5.70;;;2.42;;
21175;SDS011;10746;50.178;8.186;2022-10-23T15:06:49;6.32;;;2.63;;
21175;SDS011;10746;50.178;8.186;2022-10-23T15:09:20;3.00;;;2.20;;
21175;SDS011;10746;50.178;8.186;2022-10-23T15:11:50;4.50;;;2.50;;
21175;SDS011;10746;50.178;8.186;2022-10-23T15:14:25;6.57;;;2.35;;